sensor_id;sensor_type;location;lat;lon;timestamp;temperature;humidity
57829;DHT22;43657;52.698;6.314;2023-03-19T00:01:54;9.50;99.90
57829;DHT22;43657;52.698;6.314;2023-03-19T00:04:21;9.50;99.90
57829;DHT22;43657;52.698;6.314;2023-03-19T00:06:48;9.60;99.90
57829;DHT22;43657;52.698;6.314;2023-03-19T00:09:14;9.60;99.90
57829;DHT22;43657;52.698;6.314;2023-03-19T00:11:40;9.60;99.90
57829;DHT22;43657;52.698;6.314;2023-03-19T00:14:06;9.60;99.90
57829;DHT22;43657;52.698;6.314;2023-03-19T00:16:32;9.60;99.90
57829;DHT22;43657;52.698;6.314;2023-03-19T00:18:57;9.60;99.90
57829;DHT22;43657;52.698;6.314;2023-03-19T00:21:23;9.60;99.90
57829;DHT22;43657;52.698;6.314;2023-03-19T00:23:49;9.60;99.90
57829;DHT22;43657;52.698;6.314;2023-03-19T00:26:14;9.60;99.90
57829;DHT22;43657;52.698;6.314;2023-03-19T00:28:40;9.60;99.90
57829;DHT22;43657;52.698;6.314;2023-03-19T00:31:10;9.70;99.90
57829;DHT22;43657;52.698;6.314;2023-03-19T00:33:37;9.60;99.90
57829;DHT22;43657;52.698;6.314;2023-03-19T00:36:03;9.70;99.90
57829;DHT22;43657;52.698;6.314;2023-03-19T00:38:30;9.70;99.90
57829;DHT22;43657;52.698;6.314;2023-03-19T00:41:15;9.70;99.90
57829;DHT22;43657;52.698;6.314;2023-03-19T00:43:52;9.70;99.90
57829;DHT22;43657;52.698;6.314;2023-03-19T00:50:34;9.70;99.90
57829;DHT22;43657;52.698;6.314;2023-03-19T00:53:47;9.70;99.90
57829;DHT22;43657;52.698;6.314;2023-03-19T00:59:53;9.70;99.90
57829;DHT22;43657;52.698;6.314;2023-03-19T01:02:28;9.70;99.90
57829;DHT22;43657;52.698;6.314;2023-03-19T01:05:17;9.70;99.90
57829;DHT22;43657;52.698;6.314;2023-03-19T01:07:52;9.80;99.90
57829;DHT22;43657;52.698;6.314;2023-03-19T01:10:26;9.80;99.90
57829;DHT22;43657;52.698;6.314;2023-03-19T01:12:58;9.80;99.90
57829;DHT22;43657;52.698;6.314;2023-03-19T01:15:28;9.80;99.90
57829;DHT22;43657;52.698;6.314;2023-03-19T01:18:00;9.80;99.90
57829;DHT22;43657;52.698;6.314;2023-03-19T01:20:27;9.80;99.90
57829;DHT22;43657;52.698;6.314;2023-03-19T01:22:54;9.80;99.90
57829;DHT22;43657;52.698;6.314;2023-03-19T01:25:21;9.80;99.90
57829;DHT22;43657;52.698;6.314;2023-03-19T01:27:55;9.80;99.90
57829;DHT22;43657;52.698;6.314;2023-03-19T01:30:21;9.80;99.90
57829;DHT22;43657;52.698;6.314;2023-03-19T01:32:46;9.70;99.90
57829;DHT22;43657;52.698;6.314;2023-03-19T01:35:12;9.70;99.90
57829;DHT22;43657;52.698;6.314;2023-03-19T01:37:43;9.70;99.90
57829;DHT22;43657;52.698;6.314;2023-03-19T01:40:14;9.70;99.90
57829;DHT22;43657;52.698;6.314;2023-03-19T01:43:10;9.70;99.90
57829;DHT22;43657;52.698;6.314;2023-03-19T01:45:39;9.70;99.90
57829;DHT22;43657;52.698;6.314;2023-03-19T01:48:17;9.70;99.90
57829;DHT22;43657;52.698;6.314;2023-03-19T01:50:44;9.70;99.90
57829;DHT22;43657;52.698;6.314;2023-03-19T01:53:12;9.70;99.90
57829;DHT22;43657;52.698;6.314;2023-03-19T01:55:39;9.70;99.90
57829;DHT22;43657;52.698;6.314;2023-03-19T01:58:06;9.60;99.90
57829;DHT22;43657;52.698;6.314;2023-03-19T02:00:34;9.60;99.90
57829;DHT22;43657;52.698;6.314;2023-03-19T02:03:01;9.60;99.90
57829;DHT22;43657;52.698;6.314;2023-03-19T02:05:28;9.50;99.90
57829;DHT22;43657;52.698;6.314;2023-03-19T02:07:58;9.50;99.90
57829;DHT22;43657;52.698;6.314;2023-03-19T02:10:26;9.40;99.90
57829;DHT22;43657;52.698;6.314;2023-03-19T02:12:57;9.50;99.90
57829;DHT22;43657;52.698;6.314;2023-03-19T02:15:26;9.40;99.90
57829;DHT22;43657;52.698;6.314;2023-03-19T02:17:51;9.40;99.90
57829;DHT22;43657;52.698;6.314;2023-03-19T02:26:08;9.40;99.90
57829;DHT22;43657;52.698;6.314;2023-03-19T02:28:38;9.40;99.90
57829;DHT22;43657;52.698;6.314;2023-03-19T02:31:12;9.40;99.90
57829;DHT22;43657;52.698;6.314;2023-03-19T02:33:39;9.50;99.90
57829;DHT22;43657;52.698;6.314;2023-03-19T02:36:08;9.50;99.90
57829;DHT22;43657;52.698;6.314;2023-03-19T02:38:35;9.50;99.90
57829;DHT22;43657;52.698;6.314;2023-03-19T02:41:05;9.50;99.90
57829;DHT22;43657;52.698;6.314;2023-03-19T02:43:35;9.50;99.90
57829;DHT22;43657;52.698;6.314;2023-03-19T02:46:08;9.50;99.90
57829;DHT22;43657;52.698;6.314;2023-03-19T02:48:36;9.50;99.90
57829;DHT22;43657;52.698;6.314;2023-03-19T02:51:05;9.40;99.90
57829;DHT22;43657;52.698;6.314;2023-03-19T02:53:32;9.30;99.90
57829;DHT22;43657;52.698;6.314;2023-03-19T02:56:02;9.20;99.90
57829;DHT22;43657;52.698;6.314;2023-03-19T02:58:29;9.20;99.90
57829;DHT22;43657;52.698;6.314;2023-03-19T03:00:55;9.20;99.90
57829;DHT22;43657;52.698;6.314;2023-03-19T03:03:21;9.10;99.90
57829;DHT22;43657;52.698;6.314;2023-03-19T03:05:48;9.10;99.90
57829;DHT22;43657;52.698;6.314;2023-03-19T03:08:15;9.00;99.90
57829;DHT22;43657;52.698;6.314;2023-03-19T03:10:44;8.90;99.90
57829;DHT22;43657;52.698;6.314;2023-03-19T03:13:16;8.80;99.90
57829;DHT22;43657;52.698;6.314;2023-03-19T03:15:43;8.90;99.90
57829;DHT22;43657;52.698;6.314;2023-03-19T03:18:09;8.90;99.90
57829;DHT22;43657;52.698;6.314;2023-03-19T03:20:36;8.80;99.90
57829;DHT22;43657;52.698;6.314;2023-03-19T03:23:06;8.80;99.90
57829;DHT22;43657;52.698;6.314;2023-03-19T03:25:32;8.90;99.90
57829;DHT22;43657;52.698;6.314;2023-03-19T03:28:00;8.90;99.90
57829;DHT22;43657;52.698;6.314;2023-03-19T03:30:26;8.90;99.90
57829;DHT22;43657;52.698;6.314;2023-03-19T03:32:53;9.00;99.90
57829;DHT22;43657;52.698;6.314;2023-03-19T03:35:19;9.00;99.90
57829;DHT22;43657;52.698;6.314;2023-03-19T03:37:50;9.00;99.90
57829;DHT22;43657;52.698;6.314;2023-03-19T03:40:16;9.10;99.90
57829;DHT22;43657;52.698;6.314;2023-03-19T03:42:44;9.20;99.90
57829;DHT22;43657;52.698;6.314;2023-03-19T03:45:13;9.10;99.90
57829;DHT22;43657;52.698;6.314;2023-03-19T03:47:39;9.20;99.90
57829;DHT22;43657;52.698;6.314;2023-03-19T03:50:08;9.20;99.90
57829;DHT22;43657;52.698;6.314;2023-03-19T03:52:36;9.20;99.90
57829;DHT22;43657;52.698;6.314;2023-03-19T03:55:02;9.20;99.90
57829;DHT22;43657;52.698;6.314;2023-03-19T03:57:28;9.20;99.90
57829;DHT22;43657;52.698;6.314;2023-03-19T03:59:54;9.20;99.90
57829;DHT22;43657;52.698;6.314;2023-03-19T04:02:20;9.20;99.90
57829;DHT22;43657;52.698;6.314;2023-03-19T04:04:46;9.20;99.90
57829;DHT22;43657;52.698;6.314;2023-03-19T04:07:19;9.20;99.90
57829;DHT22;43657;52.698;6.314;2023-03-19T04:09:50;9.10;99.90
57829;DHT22;43657;52.698;6.314;2023-03-19T04:12:16;9.20;99.90
57829;DHT22;43657;52.698;6.314;2023-03-19T04:14:47;9.10;99.90
57829;DHT22;43657;52.698;6.314;2023-03-19T04:17:16;9.20;99.90
57829;DHT22;43657;52.698;6.314;2023-03-19T04:19:41;9.20;99.90
57829;DHT22;43657;52.698;6.314;2023-03-19T04:22:08;9.10;99.90
57829;DHT22;43657;52.698;6.314;2023-03-19T04:24:34;9.10;99.90
57829;DHT22;43657;52.698;6.314;2023-03-19T04:27:00;9.10;99.90
57829;DHT22;43657;52.698;6.314;2023-03-19T04:29:25;9.00;99.90
57829;DHT22;43657;52.698;6.314;2023-03-19T04:31:51;9.00;99.90
57829;DHT22;43657;52.698;6.314;2023-03-19T04:34:20;9.00;99.90
57829;DHT22;43657;52.698;6.314;2023-03-19T04:36:50;9.00;99.90
57829;DHT22;43657;52.698;6.314;2023-03-19T04:39:21;8.90;99.90
57829;DHT22;43657;52.698;6.314;2023-03-19T04:41:50;8.90;99.90
57829;DHT22;43657;52.698;6.314;2023-03-19T04:44:16;8.80;99.90
57829;DHT22;43657;52.698;6.314;2023-03-19T04:46:42;8.70;99.90
57829;DHT22;43657;52.698;6.314;2023-03-19T04:49:11;8.60;99.90
57829;DHT22;43657;52.698;6.314;2023-03-19T04:51:44;8.50;99.90
57829;DHT22;43657;52.698;6.314;2023-03-19T04:54:13;8.30;99.90
57829;DHT22;43657;52.698;6.314;2023-03-19T04:56:39;8.30;99.90
57829;DHT22;43657;52.698;6.314;2023-03-19T04:59:08;8.30;99.90
57829;DHT22;43657;52.698;6.314;2023-03-19T05:01:35;8.20;99.90
57829;DHT22;43657;52.698;6.314;2023-03-19T05:04:01;8.10;99.90
57829;DHT22;43657;52.698;6.314;2023-03-19T05:06:30;8.10;99.90
57829;DHT22;43657;52.698;6.314;2023-03-19T05:08:56;8.10;99.90
57829;DHT22;43657;52.698;6.314;2023-03-19T05:11:22;8.10;99.90
57829;DHT22;43657;52.698;6.314;2023-03-19T05:13:48;8.10;99.90
57829;DHT22;43657;52.698;6.314;2023-03-19T05:16:17;8.00;99.90
57829;DHT22;43657;52.698;6.314;2023-03-19T05:18:43;8.00;99.90
57829;DHT22;43657;52.698;6.314;2023-03-19T05:21:11;8.00;99.90
57829;DHT22;43657;52.698;6.314;2023-03-19T05:23:40;8.00;99.90
57829;DHT22;43657;52.698;6.314;2023-03-19T05:26:09;7.90;99.90
57829;DHT22;43657;52.698;6.314;2023-03-19T05:28:36;7.90;99.90
57829;DHT22;43657;52.698;6.314;2023-03-19T05:31:07;7.80;99.90
57829;DHT22;43657;52.698;6.314;2023-03-19T05:33:36;7.80;99.90
57829;DHT22;43657;52.698;6.314;2023-03-19T05:36:05;7.70;99.90
57829;DHT22;43657;52.698;6.314;2023-03-19T05:38:35;7.70;99.90
57829;DHT22;43657;52.698;6.314;2023-03-19T05:41:12;7.60;99.90
57829;DHT22;43657;52.698;6.314;2023-03-19T05:43:48;7.60;99.90
57829;DHT22;43657;52.698;6.314;2023-03-19T05:46:13;7.50;99.90
57829;DHT22;43657;52.698;6.314;2023-03-19T05:48:39;7.50;99.90
57829;DHT22;43657;52.698;6.314;2023-03-19T05:51:05;7.40;99.90
57829;DHT22;43657;52.698;6.314;2023-03-19T05:53:34;7.40;99.90
57829;DHT22;43657;52.698;6.314;2023-03-19T05:56:05;7.30;99.90
57829;DHT22;43657;52.698;6.314;2023-03-19T05:58:36;7.30;99.90
57829;DHT22;43657;52.698;6.314;2023-03-19T06:01:07;7.30;99.90
57829;DHT22;43657;52.698;6.314;2023-03-19T06:03:36;7.30;99.90
57829;DHT22;43657;52.698;6.314;2023-03-19T06:06:05;7.30;99.90
57829;DHT22;43657;52.698;6.314;2023-03-19T06:08:34;7.30;99.90
57829;DHT22;43657;52.698;6.314;2023-03-19T06:11:03;7.30;99.90
57829;DHT22;43657;52.698;6.314;2023-03-19T06:13:36;7.20;99.90
57829;DHT22;43657;52.698;6.314;2023-03-19T06:16:03;7.20;99.90
57829;DHT22;43657;52.698;6.314;2023-03-19T06:18:29;7.20;99.90
57829;DHT22;43657;52.698;6.314;2023-03-19T06:20:55;7.20;99.90
57829;DHT22;43657;52.698;6.314;2023-03-19T06:23:26;7.20;99.90
57829;DHT22;43657;52.698;6.314;2023-03-19T06:25:52;7.10;99.90
57829;DHT22;43657;52.698;6.314;2023-03-19T06:28:30;7.10;99.90
57829;DHT22;43657;52.698;6.314;2023-03-19T06:31:00;7.20;99.90
57829;DHT22;43657;52.698;6.314;2023-03-19T06:33:31;7.10;99.90
57829;DHT22;43657;52.698;6.314;2023-03-19T06:35:58;7.10;99.90
57829;DHT22;43657;52.698;6.314;2023-03-19T06:38:24;7.10;99.90
57829;DHT22;43657;52.698;6.314;2023-03-19T06:40:51;7.10;99.90
57829;DHT22;43657;52.698;6.314;2023-03-19T06:43:19;7.10;99.90
57829;DHT22;43657;52.698;6.314;2023-03-19T06:45:48;7.20;99.90
57829;DHT22;43657;52.698;6.314;2023-03-19T06:48:14;7.20;99.90
57829;DHT22;43657;52.698;6.314;2023-03-19T06:50:44;7.20;99.90
57829;DHT22;43657;52.698;6.314;2023-03-19T06:53:13;7.20;99.90
57829;DHT22;43657;52.698;6.314;2023-03-19T06:55:40;7.20;99.90
57829;DHT22;43657;52.698;6.314;2023-03-19T06:58:06;7.40;99.90
57829;DHT22;43657;52.698;6.314;2023-03-19T07:00:40;7.40;99.90
57829;DHT22;43657;52.698;6.314;2023-03-19T07:03:09;7.50;99.90
57829;DHT22;43657;52.698;6.314;2023-03-19T07:05:44;7.60;99.90
57829;DHT22;43657;52.698;6.314;2023-03-19T07:08:10;7.70;99.90
57829;DHT22;43657;52.698;6.314;2023-03-19T07:10:42;7.90;99.90
57829;DHT22;43657;52.698;6.314;2023-03-19T07:13:11;8.10;99.90
57829;DHT22;43657;52.698;6.314;2023-03-19T07:15:39;8.20;99.90
57829;DHT22;43657;52.698;6.314;2023-03-19T07:18:08;8.30;99.90
57829;DHT22;43657;52.698;6.314;2023-03-19T07:21:05;8.30;99.90
57829;DHT22;43657;52.698;6.314;2023-03-19T07:23:40;8.30;99.90
57829;DHT22;43657;52.698;6.314;2023-03-19T07:26:12;8.40;99.90
57829;DHT22;43657;52.698;6.314;2023-03-19T07:28:41;8.50;99.90
57829;DHT22;43657;52.698;6.314;2023-03-19T07:31:26;8.50;99.90
57829;DHT22;43657;52.698;6.314;2023-03-19T07:33:52;8.70;99.90
57829;DHT22;43657;52.698;6.314;2023-03-19T07:36:20;8.80;99.90
57829;DHT22;43657;52.698;6.314;2023-03-19T07:38:49;8.90;99.90
57829;DHT22;43657;52.698;6.314;2023-03-19T07:41:16;9.00;99.90
57829;DHT22;43657;52.698;6.314;2023-03-19T07:43:41;9.00;99.90
57829;DHT22;43657;52.698;6.314;2023-03-19T07:46:07;9.20;99.90
57829;DHT22;43657;52.698;6.314;2023-03-19T07:48:33;9.30;99.90
57829;DHT22;43657;52.698;6.314;2023-03-19T07:50:59;9.40;99.90
57829;DHT22;43657;52.698;6.314;2023-03-19T07:53:24;9.60;99.90
57829;DHT22;43657;52.698;6.314;2023-03-19T07:55:50;9.90;99.90
57829;DHT22;43657;52.698;6.314;2023-03-19T07:58:19;10.20;99.90
57829;DHT22;43657;52.698;6.314;2023-03-19T08:00:45;10.50;99.90
57829;DHT22;43657;52.698;6.314;2023-03-19T08:03:14;10.60;99.90
57829;DHT22;43657;52.698;6.314;2023-03-19T08:05:40;10.60;99.90
57829;DHT22;43657;52.698;6.314;2023-03-19T08:08:06;10.60;99.90
57829;DHT22;43657;52.698;6.314;2023-03-19T08:10:32;10.50;99.90
57829;DHT22;43657;52.698;6.314;2023-03-19T08:12:58;10.40;99.90
57829;DHT22;43657;52.698;6.314;2023-03-19T08:15:23;10.40;99.90
57829;DHT22;43657;52.698;6.314;2023-03-19T08:17:57;10.40;99.90
57829;DHT22;43657;52.698;6.314;2023-03-19T08:20:23;10.30;99.90
57829;DHT22;43657;52.698;6.314;2023-03-19T08:22:49;10.30;99.90
57829;DHT22;43657;52.698;6.314;2023-03-19T08:25:15;10.20;99.90
57829;DHT22;43657;52.698;6.314;2023-03-19T08:27:41;10.30;99.90
57829;DHT22;43657;52.698;6.314;2023-03-19T08:30:12;10.40;99.90
57829;DHT22;43657;52.698;6.314;2023-03-19T08:32:37;10.60;99.90
57829;DHT22;43657;52.698;6.314;2023-03-19T08:35:04;10.70;99.90
57829;DHT22;43657;52.698;6.314;2023-03-19T08:37:30;10.80;99.90
57829;DHT22;43657;52.698;6.314;2023-03-19T08:39:56;10.70;99.90
57829;DHT22;43657;52.698;6.314;2023-03-19T08:42:24;10.80;99.90
57829;DHT22;43657;52.698;6.314;2023-03-19T08:44:50;11.00;99.90
57829;DHT22;43657;52.698;6.314;2023-03-19T08:47:16;11.20;99.90
57829;DHT22;43657;52.698;6.314;2023-03-19T08:49:41;11.30;99.90
57829;DHT22;43657;52.698;6.314;2023-03-19T08:52:07;11.30;99.90
57829;DHT22;43657;52.698;6.314;2023-03-19T08:54:33;11.40;99.90
57829;DHT22;43657;52.698;6.314;2023-03-19T08:57:02;11.30;99.90
57829;DHT22;43657;52.698;6.314;2023-03-19T08:59:28;11.30;99.90
57829;DHT22;43657;52.698;6.314;2023-03-19T09:01:54;11.20;99.90
57829;DHT22;43657;52.698;6.314;2023-03-19T09:04:20;11.20;99.90
57829;DHT22;43657;52.698;6.314;2023-03-19T09:06:47;11.30;99.90
57829;DHT22;43657;52.698;6.314;2023-03-19T09:09:19;11.50;99.90
57829;DHT22;43657;52.698;6.314;2023-03-19T09:11:45;11.80;99.90
57829;DHT22;43657;52.698;6.314;2023-03-19T09:14:11;11.70;99.90
57829;DHT22;43657;52.698;6.314;2023-03-19T09:16:38;11.60;99.90
57829;DHT22;43657;52.698;6.314;2023-03-19T09:19:07;11.50;99.90
57829;DHT22;43657;52.698;6.314;2023-03-19T09:21:34;11.50;99.90
57829;DHT22;43657;52.698;6.314;2023-03-19T09:23:59;11.50;99.90
57829;DHT22;43657;52.698;6.314;2023-03-19T09:26:25;11.40;99.90
57829;DHT22;43657;52.698;6.314;2023-03-19T09:28:51;11.40;99.90
57829;DHT22;43657;52.698;6.314;2023-03-19T09:31:17;11.40;99.90
57829;DHT22;43657;52.698;6.314;2023-03-19T09:37:39;11.30;99.90
57829;DHT22;43657;52.698;6.314;2023-03-19T09:40:05;11.20;99.90
57829;DHT22;43657;52.698;6.314;2023-03-19T09:45:33;10.90;99.90
57829;DHT22;43657;52.698;6.314;2023-03-19T09:48:15;10.90;99.90
57829;DHT22;43657;52.698;6.314;2023-03-19T09:50:46;10.90;99.90
57829;DHT22;43657;52.698;6.314;2023-03-19T09:53:39;10.90;99.90
57829;DHT22;43657;52.698;6.314;2023-03-19T09:56:24;10.90;99.90
57829;DHT22;43657;52.698;6.314;2023-03-19T09:58:50;10.90;99.90
57829;DHT22;43657;52.698;6.314;2023-03-19T10:01:28;11.00;99.90
57829;DHT22;43657;52.698;6.314;2023-03-19T10:12:55;11.30;99.90
57829;DHT22;43657;52.698;6.314;2023-03-19T10:15:30;11.60;99.90
57829;DHT22;43657;52.698;6.314;2023-03-19T10:18:20;11.70;99.90
57829;DHT22;43657;52.698;6.314;2023-03-19T10:21:32;11.90;99.90
57829;DHT22;43657;52.698;6.314;2023-03-19T10:24:11;11.90;99.90
57829;DHT22;43657;52.698;6.314;2023-03-19T10:26:38;12.00;99.90
57829;DHT22;43657;52.698;6.314;2023-03-19T10:29:11;12.10;99.90
57829;DHT22;43657;52.698;6.314;2023-03-19T10:31:43;12.70;99.90
57829;DHT22;43657;52.698;6.314;2023-03-19T10:34:43;13.10;99.90
57829;DHT22;43657;52.698;6.314;2023-03-19T10:37:16;13.40;99.90
57829;DHT22;43657;52.698;6.314;2023-03-19T10:39:46;13.70;99.90
57829;DHT22;43657;52.698;6.314;2023-03-19T10:42:34;13.90;99.90
57829;DHT22;43657;52.698;6.314;2023-03-19T10:45:27;13.90;99.90
57829;DHT22;43657;52.698;6.314;2023-03-19T10:47:57;14.40;99.90
57829;DHT22;43657;52.698;6.314;2023-03-19T10:50:53;14.90;99.90
57829;DHT22;43657;52.698;6.314;2023-03-19T10:55:46;15.90;99.90
57829;DHT22;43657;52.698;6.314;2023-03-19T10:58:19;15.80;99.90
57829;DHT22;43657;52.698;6.314;2023-03-19T11:00:56;15.90;99.90
57829;DHT22;43657;52.698;6.314;2023-03-19T11:03:35;15.70;99.90
57829;DHT22;43657;52.698;6.314;2023-03-19T11:06:21;15.40;99.90
57829;DHT22;43657;52.698;6.314;2023-03-19T11:11:50;15.50;99.90
57829;DHT22;43657;52.698;6.314;2023-03-19T11:14:23;15.90;99.90
57829;DHT22;43657;52.698;6.314;2023-03-19T11:19:40;16.70;99.90
57829;DHT22;43657;52.698;6.314;2023-03-19T11:24:41;16.60;99.90
57829;DHT22;43657;52.698;6.314;2023-03-19T11:27:09;16.60;99.90
57829;DHT22;43657;52.698;6.314;2023-03-19T11:29:40;16.80;99.90
57829;DHT22;43657;52.698;6.314;2023-03-19T11:32:20;16.80;99.90
57829;DHT22;43657;52.698;6.314;2023-03-19T11:35:02;16.10;99.90
57829;DHT22;43657;52.698;6.314;2023-03-19T11:40:27;15.60;99.90
57829;DHT22;43657;52.698;6.314;2023-03-19T11:48:43;16.20;99.90
57829;DHT22;43657;52.698;6.314;2023-03-19T11:51:16;17.20;99.90
57829;DHT22;43657;52.698;6.314;2023-03-19T11:56:40;17.90;99.90
57829;DHT22;43657;52.698;6.314;2023-03-19T12:02:30;18.40;99.90
57829;DHT22;43657;52.698;6.314;2023-03-19T12:10:51;17.30;99.90
57829;DHT22;43657;52.698;6.314;2023-03-19T12:16:43;18.20;99.90
57829;DHT22;43657;52.698;6.314;2023-03-19T12:29:26;17.60;99.90
57829;DHT22;43657;52.698;6.314;2023-03-19T12:32:09;17.50;99.90
57829;DHT22;43657;52.698;6.314;2023-03-19T12:34:51;17.80;99.90
57829;DHT22;43657;52.698;6.314;2023-03-19T12:42:44;19.00;99.90
57829;DHT22;43657;52.698;6.314;2023-03-19T12:45:26;19.70;99.90
57829;DHT22;43657;52.698;6.314;2023-03-19T12:47:55;20.10;99.90
57829;DHT22;43657;52.698;6.314;2023-03-19T12:50:23;20.00;99.90
57829;DHT22;43657;52.698;6.314;2023-03-19T12:52:54;19.70;99.90
57829;DHT22;43657;52.698;6.314;2023-03-19T12:55:39;19.70;99.90
57829;DHT22;43657;52.698;6.314;2023-03-19T12:58:22;20.00;99.90
57829;DHT22;43657;52.698;6.314;2023-03-19T13:01:00;20.10;99.90
57829;DHT22;43657;52.698;6.314;2023-03-19T13:03:37;20.20;99.90
57829;DHT22;43657;52.698;6.314;2023-03-19T13:06:15;20.50;99.90
57829;DHT22;43657;52.698;6.314;2023-03-19T13:09:02;20.40;99.90
57829;DHT22;43657;52.698;6.314;2023-03-19T13:12:02;20.10;99.90
57829;DHT22;43657;52.698;6.314;2023-03-19T13:17:22;20.90;99.90
57829;DHT22;43657;52.698;6.314;2023-03-19T13:19:51;20.50;99.90
57829;DHT22;43657;52.698;6.314;2023-03-19T13:22:22;19.60;99.90
57829;DHT22;43657;52.698;6.314;2023-03-19T13:24:53;18.80;99.90
57829;DHT22;43657;52.698;6.314;2023-03-19T13:27:28;18.40;99.90
57829;DHT22;43657;52.698;6.314;2023-03-19T13:33:04;19.30;99.90
57829;DHT22;43657;52.698;6.314;2023-03-19T13:35:59;19.90;99.90
57829;DHT22;43657;52.698;6.314;2023-03-19T13:47:35;19.50;99.90
57829;DHT22;43657;52.698;6.314;2023-03-19T13:50:08;19.00;99.90
57829;DHT22;43657;52.698;6.314;2023-03-19T13:55:32;17.60;99.90
57829;DHT22;43657;52.698;6.314;2023-03-19T13:58:17;17.50;99.90
57829;DHT22;43657;52.698;6.314;2023-03-19T14:04:32;17.50;99.90
57829;DHT22;43657;52.698;6.314;2023-03-19T14:07:27;17.00;99.90
57829;DHT22;43657;52.698;6.314;2023-03-19T14:10:27;16.70;99.90
57829;DHT22;43657;52.698;6.314;2023-03-19T14:16:44;16.00;99.90
57829;DHT22;43657;52.698;6.314;2023-03-19T14:19:14;15.50;99.90
57829;DHT22;43657;52.698;6.314;2023-03-19T14:24:42;14.90;99.90
57829;DHT22;43657;52.698;6.314;2023-03-19T14:27:26;14.70;99.90
57829;DHT22;43657;52.698;6.314;2023-03-19T14:29:55;14.50;99.90
57829;DHT22;43657;52.698;6.314;2023-03-19T14:32:30;14.20;99.90
57829;DHT22;43657;52.698;6.314;2023-03-19T14:34:57;14.00;99.90
57829;DHT22;43657;52.698;6.314;2023-03-19T14:37:47;13.80;99.90
57829;DHT22;43657;52.698;6.314;2023-03-19T14:40:31;13.60;99.90
57829;DHT22;43657;52.698;6.314;2023-03-19T14:46:02;13.20;99.90
57829;DHT22;43657;52.698;6.314;2023-03-19T14:48:57;13.10;99.90
57829;DHT22;43657;52.698;6.314;2023-03-19T14:52:05;13.00;99.90
57829;DHT22;43657;52.698;6.314;2023-03-19T14:57:20;12.80;99.90
57829;DHT22;43657;52.698;6.314;2023-03-19T14:59:48;12.70;99.90
57829;DHT22;43657;52.698;6.314;2023-03-19T15:02:33;12.60;99.90
57829;DHT22;43657;52.698;6.314;2023-03-19T15:05:05;12.50;99.90
57829;DHT22;43657;52.698;6.314;2023-03-19T15:07:38;12.40;99.90
57829;DHT22;43657;52.698;6.314;2023-03-19T15:10:43;12.40;99.90
57829;DHT22;43657;52.698;6.314;2023-03-19T15:13:20;12.40;99.90
57829;DHT22;43657;52.698;6.314;2023-03-19T15:18:30;12.10;99.90
57829;DHT22;43657;52.698;6.314;2023-03-19T15:20:56;12.00;99.90
57829;DHT22;43657;52.698;6.314;2023-03-19T15:23:25;12.00;99.90
57829;DHT22;43657;52.698;6.314;2023-03-19T15:26:02;11.90;99.90
57829;DHT22;43657;52.698;6.314;2023-03-19T15:28:30;11.70;99.90
57829;DHT22;43657;52.698;6.314;2023-03-19T15:31:03;11.60;99.90
57829;DHT22;43657;52.698;6.314;2023-03-19T15:33:35;11.60;99.90
57829;DHT22;43657;52.698;6.314;2023-03-19T15:36:23;11.60;99.90
57829;DHT22;43657;52.698;6.314;2023-03-19T15:38:56;11.40;99.90
57829;DHT22;43657;52.698;6.314;2023-03-19T15:41:23;11.40;99.90
57829;DHT22;43657;52.698;6.314;2023-03-19T15:43:50;11.40;99.90
57829;DHT22;43657;52.698;6.314;2023-03-19T15:46:20;11.30;99.90
57829;DHT22;43657;52.698;6.314;2023-03-19T15:48:52;11.30;99.90
57829;DHT22;43657;52.698;6.314;2023-03-19T15:51:21;11.30;99.90
57829;DHT22;43657;52.698;6.314;2023-03-19T15:53:49;11.20;99.90
57829;DHT22;43657;52.698;6.314;2023-03-19T15:56:16;11.20;99.90
57829;DHT22;43657;52.698;6.314;2023-03-19T15:58:46;11.00;99.90
57829;DHT22;43657;52.698;6.314;2023-03-19T16:01:14;11.10;99.90
57829;DHT22;43657;52.698;6.314;2023-03-19T16:03:43;11.10;99.90
57829;DHT22;43657;52.698;6.314;2023-03-19T16:06:20;11.10;99.90
57829;DHT22;43657;52.698;6.314;2023-03-19T16:08:48;11.00;99.90
57829;DHT22;43657;52.698;6.314;2023-03-19T16:11:28;11.00;99.90
57829;DHT22;43657;52.698;6.314;2023-03-19T16:14:07;10.90;99.90
57829;DHT22;43657;52.698;6.314;2023-03-19T16:16:33;10.90;99.90
57829;DHT22;43657;52.698;6.314;2023-03-19T16:19:00;10.90;99.90
57829;DHT22;43657;52.698;6.314;2023-03-19T16:21:39;10.90;99.90
57829;DHT22;43657;52.698;6.314;2023-03-19T16:24:12;10.90;99.90
57829;DHT22;43657;52.698;6.314;2023-03-19T16:26:40;10.80;99.90
57829;DHT22;43657;52.698;6.314;2023-03-19T16:29:42;10.80;99.90
57829;DHT22;43657;52.698;6.314;2023-03-19T16:33:10;10.80;99.90
57829;DHT22;43657;52.698;6.314;2023-03-19T16:36:03;10.80;99.90
57829;DHT22;43657;52.698;6.314;2023-03-19T16:38:42;10.70;99.90
57829;DHT22;43657;52.698;6.314;2023-03-19T16:45:08;10.70;99.90
57829;DHT22;43657;52.698;6.314;2023-03-19T16:47:56;10.80;99.90
57829;DHT22;43657;52.698;6.314;2023-03-19T16:54:26;10.70;99.90
57829;DHT22;43657;52.698;6.314;2023-03-19T17:12:49;10.70;99.90
57829;DHT22;43657;52.698;6.314;2023-03-19T17:15:49;10.70;99.90
57829;DHT22;43657;52.698;6.314;2023-03-19T17:18:26;10.70;99.90
57829;DHT22;43657;52.698;6.314;2023-03-19T17:21:44;10.70;99.90
57829;DHT22;43657;52.698;6.314;2023-03-19T17:24:25;10.70;99.90
57829;DHT22;43657;52.698;6.314;2023-03-19T17:26:52;10.60;99.90
57829;DHT22;43657;52.698;6.314;2023-03-19T17:29:18;10.60;99.90
57829;DHT22;43657;52.698;6.314;2023-03-19T17:31:45;10.60;99.90
57829;DHT22;43657;52.698;6.314;2023-03-19T17:34:15;10.60;99.90
57829;DHT22;43657;52.698;6.314;2023-03-19T17:36:52;10.50;99.90
57829;DHT22;43657;52.698;6.314;2023-03-19T17:39:19;10.50;99.90
57829;DHT22;43657;52.698;6.314;2023-03-19T17:41:46;10.50;99.90
57829;DHT22;43657;52.698;6.314;2023-03-19T17:44:11;10.50;99.90
57829;DHT22;43657;52.698;6.314;2023-03-19T17:46:41;10.40;99.90
57829;DHT22;43657;52.698;6.314;2023-03-19T17:49:21;10.40;99.90
57829;DHT22;43657;52.698;6.314;2023-03-19T17:51:50;10.30;99.90
57829;DHT22;43657;52.698;6.314;2023-03-19T17:54:16;10.30;99.90
57829;DHT22;43657;52.698;6.314;2023-03-19T17:56:42;10.30;99.90
57829;DHT22;43657;52.698;6.314;2023-03-19T17:59:11;10.20;99.90
57829;DHT22;43657;52.698;6.314;2023-03-19T18:01:39;10.10;99.90
57829;DHT22;43657;52.698;6.314;2023-03-19T18:04:05;10.00;99.90
57829;DHT22;43657;52.698;6.314;2023-03-19T18:06:33;10.00;99.90
57829;DHT22;43657;52.698;6.314;2023-03-19T18:09:00;10.00;99.90
57829;DHT22;43657;52.698;6.314;2023-03-19T18:11:25;10.00;99.90
57829;DHT22;43657;52.698;6.314;2023-03-19T18:13:51;9.90;99.90
57829;DHT22;43657;52.698;6.314;2023-03-19T18:16:26;9.90;99.90
57829;DHT22;43657;52.698;6.314;2023-03-19T18:18:55;9.80;99.90
57829;DHT22;43657;52.698;6.314;2023-03-19T18:21:22;9.80;99.90
57829;DHT22;43657;52.698;6.314;2023-03-19T18:23:47;9.80;99.90
57829;DHT22;43657;52.698;6.314;2023-03-19T18:26:13;9.80;99.90